sensor_id;sensor_type;location;lat;lon;timestamp;temperature;humidity
39103;DHT22;24847;48.218;16.414;2023-12-29T00:00:17;2.70;87.10
39103;DHT22;24847;48.218;16.414;2023-12-29T00:05:19;2.70;86.90
39103;DHT22;24847;48.218;16.414;2023-12-29T00:10:22;2.70;87.90
39103;DHT22;24847;48.218;16.414;2023-12-29T00:15:26;2.70;88.50
39103;DHT22;24847;48.218;16.414;2023-12-29T00:20:28;2.70;88.40
39103;DHT22;24847;48.218;16.414;2023-12-29T00:25:35;2.70;88.30
39103;DHT22;24847;48.218;16.414;2023-12-29T00:30:40;2.70;88.70
39103;DHT22;24847;48.218;16.414;2023-12-29T00:35:42;2.70;89.30
39103;DHT22;24847;48.218;16.414;2023-12-29T00:40:44;2.70;89.60
39103;DHT22;24847;48.218;16.414;2023-12-29T00:45:48;2.80;89.20
39103;DHT22;24847;48.218;16.414;2023-12-29T00:50:50;3.00;87.50
39103;DHT22;24847;48.218;16.414;2023-12-29T00:55:52;3.00;87.20
39103;DHT22;24847;48.218;16.414;2023-12-29T01:00:56;2.90;86.70
39103;DHT22;24847;48.218;16.414;2023-12-29T01:05:59;3.00;86.50
39103;DHT22;24847;48.218;16.414;2023-12-29T01:11:02;3.00;85.90
39103;DHT22;24847;48.218;16.414;2023-12-29T01:16:06;2.90;87.30
39103;DHT22;24847;48.218;16.414;2023-12-29T01:21:08;2.90;86.70
39103;DHT22;24847;48.218;16.414;2023-12-29T01:26:12;2.90;86.50
39103;DHT22;24847;48.218;16.414;2023-12-29T01:31:16;3.00;86.20
39103;DHT22;24847;48.218;16.414;2023-12-29T01:36:25;3.10;85.80
39103;DHT22;24847;48.218;16.414;2023-12-29T01:41:28;3.20;85.60
39103;DHT22;24847;48.218;16.414;2023-12-29T01:46:34;2.90;86.20
39103;DHT22;24847;48.218;16.414;2023-12-29T01:51:36;3.00;86.40
39103;DHT22;24847;48.218;16.414;2023-12-29T01:56:39;3.10;85.80
39103;DHT22;24847;48.218;16.414;2023-12-29T02:01:44;3.10;85.80
39103;DHT22;24847;48.218;16.414;2023-12-29T02:06:49;3.20;85.50
39103;DHT22;24847;48.218;16.414;2023-12-29T02:11:52;3.20;85.90
39103;DHT22;24847;48.218;16.414;2023-12-29T02:17:02;3.00;86.00
39103;DHT22;24847;48.218;16.414;2023-12-29T02:22:08;3.10;86.00
39103;DHT22;24847;48.218;16.414;2023-12-29T02:27:23;3.00;86.30
39103;DHT22;24847;48.218;16.414;2023-12-29T02:32:37;3.00;86.50
39103;DHT22;24847;48.218;16.414;2023-12-29T02:37:41;3.00;87.00
39103;DHT22;24847;48.218;16.414;2023-12-29T02:42:48;3.10;87.00
39103;DHT22;24847;48.218;16.414;2023-12-29T02:47:50;3.20;86.70
39103;DHT22;24847;48.218;16.414;2023-12-29T02:52:53;3.20;86.70
39103;DHT22;24847;48.218;16.414;2023-12-29T02:57:57;3.20;87.30
39103;DHT22;24847;48.218;16.414;2023-12-29T03:02:59;3.20;87.30
39103;DHT22;24847;48.218;16.414;2023-12-29T03:08:05;3.20;87.40
39103;DHT22;24847;48.218;16.414;2023-12-29T03:13:09;3.20;87.50
39103;DHT22;24847;48.218;16.414;2023-12-29T03:18:11;3.40;85.90
39103;DHT22;24847;48.218;16.414;2023-12-29T03:23:13;3.50;85.40
39103;DHT22;24847;48.218;16.414;2023-12-29T03:28:17;3.50;85.00
39103;DHT22;24847;48.218;16.414;2023-12-29T03:33:19;3.60;84.70
39103;DHT22;24847;48.218;16.414;2023-12-29T03:38:21;3.60;84.50
39103;DHT22;24847;48.218;16.414;2023-12-29T03:43:25;3.60;84.80
39103;DHT22;24847;48.218;16.414;2023-12-29T03:48:27;3.60;84.80
39103;DHT22;24847;48.218;16.414;2023-12-29T03:53:29;3.60;84.90
39103;DHT22;24847;48.218;16.414;2023-12-29T03:58:33;3.70;85.00
39103;DHT22;24847;48.218;16.414;2023-12-29T04:03:36;3.70;84.90
39103;DHT22;24847;48.218;16.414;2023-12-29T04:08:38;3.80;84.60
39103;DHT22;24847;48.218;16.414;2023-12-29T04:13:42;3.90;84.40
39103;DHT22;24847;48.218;16.414;2023-12-29T04:18:44;3.90;85.00
39103;DHT22;24847;48.218;16.414;2023-12-29T04:23:46;3.90;86.10
39103;DHT22;24847;48.218;16.414;2023-12-29T04:28:50;3.90;85.10
39103;DHT22;24847;48.218;16.414;2023-12-29T04:33:56;4.00;85.00
39103;DHT22;24847;48.218;16.414;2023-12-29T04:38:58;4.20;84.30
39103;DHT22;24847;48.218;16.414;2023-12-29T04:44:02;4.20;83.50
39103;DHT22;24847;48.218;16.414;2023-12-29T04:49:04;4.40;83.60
39103;DHT22;24847;48.218;16.414;2023-12-29T04:54:07;4.60;82.80
39103;DHT22;24847;48.218;16.414;2023-12-29T04:59:10;4.80;81.70
39103;DHT22;24847;48.218;16.414;2023-12-29T05:04:12;5.20;80.80
39103;DHT22;24847;48.218;16.414;2023-12-29T05:09:20;5.80;80.10
39103;DHT22;24847;48.218;16.414;2023-12-29T05:14:24;6.20;78.20
39103;DHT22;24847;48.218;16.414;2023-12-29T05:19:27;6.30;78.10
39103;DHT22;24847;48.218;16.414;2023-12-29T05:24:29;6.40;77.80
39103;DHT22;24847;48.218;16.414;2023-12-29T05:29:32;6.60;76.80
39103;DHT22;24847;48.218;16.414;2023-12-29T05:34:35;6.30;77.00
39103;DHT22;24847;48.218;16.414;2023-12-29T05:39:37;6.20;78.10
39103;DHT22;24847;48.218;16.414;2023-12-29T05:44:41;4.80;82.20
39103;DHT22;24847;48.218;16.414;2023-12-29T05:49:43;4.40;84.10
39103;DHT22;24847;48.218;16.414;2023-12-29T05:54:45;4.40;84.10
39103;DHT22;24847;48.218;16.414;2023-12-29T05:59:49;4.20;84.70
39103;DHT22;24847;48.218;16.414;2023-12-29T06:04:52;4.20;84.30
39103;DHT22;24847;48.218;16.414;2023-12-29T06:09:54;4.10;84.30
39103;DHT22;24847;48.218;16.414;2023-12-29T06:14:58;4.10;84.20
39103;DHT22;24847;48.218;16.414;2023-12-29T06:20:00;4.00;84.50
39103;DHT22;24847;48.218;16.414;2023-12-29T06:25:03;3.90;85.30
39103;DHT22;24847;48.218;16.414;2023-12-29T06:30:08;3.70;85.60
39103;DHT22;24847;48.218;16.414;2023-12-29T06:35:16;3.40;87.20
39103;DHT22;24847;48.218;16.414;2023-12-29T06:40:18;3.70;86.00
39103;DHT22;24847;48.218;16.414;2023-12-29T06:45:25;3.60;85.80
39103;DHT22;24847;48.218;16.414;2023-12-29T06:50:27;3.40;86.50
39103;DHT22;24847;48.218;16.414;2023-12-29T06:55:30;3.40;86.50
39103;DHT22;24847;48.218;16.414;2023-12-29T07:00:33;3.60;85.80
39103;DHT22;24847;48.218;16.414;2023-12-29T07:05:37;3.60;85.50
39103;DHT22;24847;48.218;16.414;2023-12-29T07:10:41;3.60;85.40
39103;DHT22;24847;48.218;16.414;2023-12-29T07:15:45;3.70;85.20
39103;DHT22;24847;48.218;16.414;2023-12-29T07:20:47;3.60;85.30
39103;DHT22;24847;48.218;16.414;2023-12-29T07:25:49;3.70;85.60
39103;DHT22;24847;48.218;16.414;2023-12-29T07:30:53;3.80;85.40
39103;DHT22;24847;48.218;16.414;2023-12-29T07:35:55;3.70;85.60
39103;DHT22;24847;48.218;16.414;2023-12-29T07:40:58;3.60;85.50
39103;DHT22;24847;48.218;16.414;2023-12-29T07:46:02;3.40;85.90
39103;DHT22;24847;48.218;16.414;2023-12-29T07:51:06;3.30;87.00
39103;DHT22;24847;48.218;16.414;2023-12-29T07:56:10;3.40;85.80
39103;DHT22;24847;48.218;16.414;2023-12-29T08:01:13;3.80;84.50
39103;DHT22;24847;48.218;16.414;2023-12-29T08:06:17;3.60;83.90
39103;DHT22;24847;48.218;16.414;2023-12-29T08:11:19;3.80;83.80
39103;DHT22;24847;48.218;16.414;2023-12-29T08:16:23;3.90;83.10
39103;DHT22;24847;48.218;16.414;2023-12-29T08:21:26;4.10;82.70
39103;DHT22;24847;48.218;16.414;2023-12-29T08:26:31;4.20;81.80
39103;DHT22;24847;48.218;16.414;2023-12-29T08:31:37;4.30;81.30
39103;DHT22;24847;48.218;16.414;2023-12-29T08:36:39;4.40;80.80
39103;DHT22;24847;48.218;16.414;2023-12-29T08:41:42;4.40;81.00
39103;DHT22;24847;48.218;16.414;2023-12-29T08:46:45;4.30;81.00
39103;DHT22;24847;48.218;16.414;2023-12-29T08:51:47;4.40;80.80
39103;DHT22;24847;48.218;16.414;2023-12-29T08:56:50;4.40;81.20
39103;DHT22;24847;48.218;16.414;2023-12-29T09:01:53;4.60;80.40
39103;DHT22;24847;48.218;16.414;2023-12-29T09:06:57;4.70;79.90
39103;DHT22;24847;48.218;16.414;2023-12-29T09:12:03;4.80;79.40
39103;DHT22;24847;48.218;16.414;2023-12-29T09:17:07;4.90;79.10
39103;DHT22;24847;48.218;16.414;2023-12-29T09:22:09;4.80;79.20
39103;DHT22;24847;48.218;16.414;2023-12-29T09:27:11;5.10;78.70
39103;DHT22;24847;48.218;16.414;2023-12-29T09:32:15;5.10;78.50
39103;DHT22;24847;48.218;16.414;2023-12-29T09:37:18;5.20;78.60
39103;DHT22;24847;48.218;16.414;2023-12-29T09:42:21;5.20;78.40
39103;DHT22;24847;48.218;16.414;2023-12-29T09:47:28;5.20;78.50
39103;DHT22;24847;48.218;16.414;2023-12-29T09:52:30;5.30;78.40
39103;DHT22;24847;48.218;16.414;2023-12-29T09:57:37;5.40;78.20
39103;DHT22;24847;48.218;16.414;2023-12-29T10:02:41;5.50;78.20
39103;DHT22;24847;48.218;16.414;2023-12-29T10:07:46;5.60;77.80
39103;DHT22;24847;48.218;16.414;2023-12-29T10:12:52;5.80;77.30
39103;DHT22;24847;48.218;16.414;2023-12-29T10:18:00;5.90;76.70
39103;DHT22;24847;48.218;16.414;2023-12-29T10:23:16;6.10;76.30
39103;DHT22;24847;48.218;16.414;2023-12-29T10:28:19;6.20;76.00
39103;DHT22;24847;48.218;16.414;2023-12-29T10:33:23;6.10;76.60
39103;DHT22;24847;48.218;16.414;2023-12-29T10:38:26;6.30;76.00
39103;DHT22;24847;48.218;16.414;2023-12-29T10:43:28;6.50;75.80
39103;DHT22;24847;48.218;16.414;2023-12-29T10:48:34;6.60;76.30
39103;DHT22;24847;48.218;16.414;2023-12-29T10:53:37;6.60;77.10
39103;DHT22;24847;48.218;16.414;2023-12-29T10:58:40;6.60;76.00
39103;DHT22;24847;48.218;16.414;2023-12-29T11:03:57;6.70;76.50
39103;DHT22;24847;48.218;16.414;2023-12-29T11:09:04;6.90;75.60
39103;DHT22;24847;48.218;16.414;2023-12-29T11:14:10;7.10;76.10
39103;DHT22;24847;48.218;16.414;2023-12-29T11:19:15;7.20;75.60
39103;DHT22;24847;48.218;16.414;2023-12-29T11:24:19;7.50;75.30
39103;DHT22;24847;48.218;16.414;2023-12-29T11:29:25;8.00;73.60
39103;DHT22;24847;48.218;16.414;2023-12-29T11:34:35;8.10;73.30
39103;DHT22;24847;48.218;16.414;2023-12-29T11:39:45;8.30;72.30
39103;DHT22;24847;48.218;16.414;2023-12-29T11:44:53;8.20;73.30
39103;DHT22;24847;48.218;16.414;2023-12-29T11:50:00;8.40;72.70
39103;DHT22;24847;48.218;16.414;2023-12-29T11:55:10;8.30;73.40
39103;DHT22;24847;48.218;16.414;2023-12-29T12:00:14;8.80;71.70
39103;DHT22;24847;48.218;16.414;2023-12-29T12:05:44;9.20;67.10
39103;DHT22;24847;48.218;16.414;2023-12-29T12:10:47;10.00;63.90
39103;DHT22;24847;48.218;16.414;2023-12-29T12:15:49;10.10;62.90
39103;DHT22;24847;48.218;16.414;2023-12-29T12:20:53;10.40;60.80
39103;DHT22;24847;48.218;16.414;2023-12-29T12:25:57;10.50;60.40
39103;DHT22;24847;48.218;16.414;2023-12-29T12:31:07;10.00;61.80
39103;DHT22;24847;48.218;16.414;2023-12-29T12:36:11;9.90;62.30
39103;DHT22;24847;48.218;16.414;2023-12-29T12:41:13;10.10;61.40
39103;DHT22;24847;48.218;16.414;2023-12-29T12:46:22;10.60;58.50
39103;DHT22;24847;48.218;16.414;2023-12-29T12:51:28;10.20;59.00
39103;DHT22;24847;48.218;16.414;2023-12-29T12:56:36;10.30;59.40
39103;DHT22;24847;48.218;16.414;2023-12-29T13:01:41;10.10;61.00
39103;DHT22;24847;48.218;16.414;2023-12-29T13:06:45;10.40;59.00
39103;DHT22;24847;48.218;16.414;2023-12-29T13:11:47;10.30;59.50
39103;DHT22;24847;48.218;16.414;2023-12-29T13:16:50;10.30;59.30
39103;DHT22;24847;48.218;16.414;2023-12-29T13:21:54;10.30;60.10
39103;DHT22;24847;48.218;16.414;2023-12-29T13:27:04;10.10;61.20
39103;DHT22;24847;48.218;16.414;2023-12-29T13:32:12;9.90;61.80
39103;DHT22;24847;48.218;16.414;2023-12-29T13:37:22;9.90;62.10
39103;DHT22;24847;48.218;16.414;2023-12-29T13:42:29;9.80;62.60
39103;DHT22;24847;48.218;16.414;2023-12-29T13:47:34;10.10;62.30
39103;DHT22;24847;48.218;16.414;2023-12-29T13:52:38;10.00;63.60
39103;DHT22;24847;48.218;16.414;2023-12-29T13:57:46;9.70;66.00
39103;DHT22;24847;48.218;16.414;2023-12-29T14:02:49;9.80;65.90
39103;DHT22;24847;48.218;16.414;2023-12-29T14:08:08;9.90;66.20
39103;DHT22;24847;48.218;16.414;2023-12-29T14:13:13;9.80;65.70
39103;DHT22;24847;48.218;16.414;2023-12-29T14:18:40;9.90;66.50
39103;DHT22;24847;48.218;16.414;2023-12-29T14:24:01;9.80;67.40
39103;DHT22;24847;48.218;16.414;2023-12-29T14:29:08;9.80;67.40
39103;DHT22;24847;48.218;16.414;2023-12-29T14:34:12;9.80;67.60
39103;DHT22;24847;48.218;16.414;2023-12-29T14:39:16;9.70;67.30
39103;DHT22;24847;48.218;16.414;2023-12-29T14:44:18;9.50;67.40
39103;DHT22;24847;48.218;16.414;2023-12-29T14:49:22;9.40;69.00
39103;DHT22;24847;48.218;16.414;2023-12-29T14:54:25;9.40;68.00
39103;DHT22;24847;48.218;16.414;2023-12-29T14:59:27;9.30;66.10
39103;DHT22;24847;48.218;16.414;2023-12-29T15:04:31;9.40;65.70
39103;DHT22;24847;48.218;16.414;2023-12-29T15:09:34;9.40;66.50
39103;DHT22;24847;48.218;16.414;2023-12-29T15:14:40;9.40;66.60
39103;DHT22;24847;48.218;16.414;2023-12-29T15:19:42;9.30;66.30
39103;DHT22;24847;48.218;16.414;2023-12-29T15:24:47;9.30;66.70
39103;DHT22;24847;48.218;16.414;2023-12-29T15:29:49;9.40;66.10
39103;DHT22;24847;48.218;16.414;2023-12-29T15:34:52;9.50;65.40
39103;DHT22;24847;48.218;16.414;2023-12-29T15:39:55;9.50;65.20
39103;DHT22;24847;48.218;16.414;2023-12-29T15:44:57;9.40;65.30
39103;DHT22;24847;48.218;16.414;2023-12-29T15:50:03;9.60;64.70
39103;DHT22;24847;48.218;16.414;2023-12-29T15:55:10;9.60;64.20
39103;DHT22;24847;48.218;16.414;2023-12-29T16:00:13;9.80;63.70
39103;DHT22;24847;48.218;16.414;2023-12-29T16:05:16;9.90;63.30
39103;DHT22;24847;48.218;16.414;2023-12-29T16:10:20;10.00;63.00
39103;DHT22;24847;48.218;16.414;2023-12-29T16:15:24;10.10;62.30
39103;DHT22;24847;48.218;16.414;2023-12-29T16:20:26;9.80;63.80
39103;DHT22;24847;48.218;16.414;2023-12-29T16:25:30;9.70;64.60
39103;DHT22;24847;48.218;16.414;2023-12-29T16:30:32;9.70;64.50
39103;DHT22;24847;48.218;16.414;2023-12-29T16:35:34;9.60;65.20
39103;DHT22;24847;48.218;16.414;2023-12-29T16:40:38;9.50;65.50
39103;DHT22;24847;48.218;16.414;2023-12-29T16:45:45;9.50;65.80
39103;DHT22;24847;48.218;16.414;2023-12-29T16:50:47;9.40;65.80
39103;DHT22;24847;48.218;16.414;2023-12-29T16:55:52;9.30;66.70
39103;DHT22;24847;48.218;16.414;2023-12-29T17:00:59;9.20;67.30
39103;DHT22;24847;48.218;16.414;2023-12-29T17:06:05;9.10;68.70
39103;DHT22;24847;48.218;16.414;2023-12-29T17:11:09;9.00;68.90
39103;DHT22;24847;48.218;16.414;2023-12-29T17:16:11;8.80;69.80
39103;DHT22;24847;48.218;16.414;2023-12-29T17:21:18;8.60;70.00
39103;DHT22;24847;48.218;16.414;2023-12-29T17:26:23;8.50;70.10
39103;DHT22;24847;48.218;16.414;2023-12-29T17:31:28;8.50;70.20
39103;DHT22;24847;48.218;16.414;2023-12-29T17:36:30;8.50;69.80
39103;DHT22;24847;48.218;16.414;2023-12-29T17:41:33;8.50;69.80
39103;DHT22;24847;48.218;16.414;2023-12-29T17:46:35;8.50;69.60
39103;DHT22;24847;48.218;16.414;2023-12-29T17:51:38;8.40;69.70
39103;DHT22;24847;48.218;16.414;2023-12-29T17:56:45;8.40;69.60
39103;DHT22;24847;48.218;16.414;2023-12-29T18:01:48;8.40;69.30
39103;DHT22;24847;48.218;16.414;2023-12-29T18:06:50;8.40;69.70
39103;DHT22;24847;48.218;16.414;2023-12-29T18:11:59;8.50;69.20
39103;DHT22;24847;48.218;16.414;2023-12-29T18:17:02;8.40;69.60
39103;DHT22;24847;48.218;16.414;2023-12-29T18:22:16;8.30;69.30
39103;DHT22;24847;48.218;16.414;2023-12-29T18:27:20;8.40;69.20
39103;DHT22;24847;48.218;16.414;2023-12-29T18:32:22;8.20;69.40
39103;DHT22;24847;48.218;16.414;2023-12-29T18:37:25;7.90;70.60
39103;DHT22;24847;48.218;16.414;2023-12-29T18:42:31;7.90;70.90
39103;DHT22;24847;48.218;16.414;2023-12-29T18:47:37;7.70;73.30
39103;DHT22;24847;48.218;16.414;2023-12-29T18:52:40;7.70;72.40
39103;DHT22;24847;48.218;16.414;2023-12-29T18:57:45;7.60;72.70
39103;DHT22;24847;48.218;16.414;2023-12-29T19:02:49;7.70;72.80
39103;DHT22;24847;48.218;16.414;2023-12-29T19:07:54;7.50;73.20
39103;DHT22;24847;48.218;16.414;2023-12-29T19:12:58;7.50;74.00
39103;DHT22;24847;48.218;16.414;2023-12-29T19:18:00;7.60;73.80
39103;DHT22;24847;48.218;16.414;2023-12-29T19:23:10;7.50;74.50
39103;DHT22;24847;48.218;16.414;2023-12-29T19:28:13;7.30;75.30
39103;DHT22;24847;48.218;16.414;2023-12-29T19:33:15;7.20;75.30
39103;DHT22;24847;48.218;16.414;2023-12-29T19:38:18;7.20;76.40
39103;DHT22;24847;48.218;16.414;2023-12-29T19:43:28;6.50;77.70
39103;DHT22;24847;48.218;16.414;2023-12-29T19:48:31;6.20;77.50
39103;DHT22;24847;48.218;16.414;2023-12-29T19:53:33;6.10;77.60
39103;DHT22;24847;48.218;16.414;2023-12-29T19:58:37;6.10;77.60
39103;DHT22;24847;48.218;16.414;2023-12-29T20:03:39;5.90;80.00
39103;DHT22;24847;48.218;16.414;2023-12-29T20:08:43;6.00;79.40
39103;DHT22;24847;48.218;16.414;2023-12-29T20:13:52;6.20;78.50
39103;DHT22;24847;48.218;16.414;2023-12-29T20:18:55;6.40;77.50
39103;DHT22;24847;48.218;16.414;2023-12-29T20:24:02;6.50;77.40
39103;DHT22;24847;48.218;16.414;2023-12-29T20:29:12;6.70;76.20
39103;DHT22;24847;48.218;16.414;2023-12-29T20:34:19;6.70;75.60
39103;DHT22;24847;48.218;16.414;2023-12-29T20:39:22;6.70;75.20
39103;DHT22;24847;48.218;16.414;2023-12-29T20:44:26;6.80;74.70
39103;DHT22;24847;48.218;16.414;2023-12-29T20:49:28;6.80;74.60
39103;DHT22;24847;48.218;16.414;2023-12-29T20:54:34;6.70;74.40
39103;DHT22;24847;48.218;16.414;2023-12-29T20:59:41;6.70;74.50
39103;DHT22;24847;48.218;16.414;2023-12-29T21:04:46;6.70;73.90
39103;DHT22;24847;48.218;16.414;2023-12-29T21:09:48;6.70;74.20
39103;DHT22;24847;48.218;16.414;2023-12-29T21:14:52;6.70;74.10
39103;DHT22;24847;48.218;16.414;2023-12-29T21:19:56;6.50;74.50
39103;DHT22;24847;48.218;16.414;2023-12-29T21:25:02;6.40;74.90
39103;DHT22;24847;48.218;16.414;2023-12-29T21:30:07;6.30;75.60
39103;DHT22;24847;48.218;16.414;2023-12-29T21:35:12;6.20;76.10
39103;DHT22;24847;48.218;16.414;2023-12-29T21:40:15;6.40;75.40
39103;DHT22;24847;48.218;16.414;2023-12-29T21:45:19;6.50;74.50
39103;DHT22;24847;48.218;16.414;2023-12-29T21:50:21;6.20;75.40
39103;DHT22;24847;48.218;16.414;2023-12-29T21:55:24;6.20;75.20
39103;DHT22;24847;48.218;16.414;2023-12-29T22:00:28;6.10;75.70
39103;DHT22;24847;48.218;16.414;2023-12-29T22:05:31;6.10;75.30
39103;DHT22;24847;48.218;16.414;2023-12-29T22:10:33;6.20;74.70
39103;DHT22;24847;48.218;16.414;2023-12-29T22:15:44;6.10;74.90
39103;DHT22;24847;48.218;16.414;2023-12-29T22:20:46;6.00;74.90
39103;DHT22;24847;48.218;16.414;2023-12-29T22:25:48;6.00;74.90
39103;DHT22;24847;48.218;16.414;2023-12-29T22:30:52;6.10;74.50
39103;DHT22;24847;48.218;16.414;2023-12-29T22:35:57;6.10;74.10
39103;DHT22;24847;48.218;16.414;2023-12-29T22:41:05;6.00;74.30
39103;DHT22;24847;48.218;16.414;2023-12-29T22:46:12;5.90;75.80
39103;DHT22;24847;48.218;16.414;2023-12-29T22:51:17;6.00;74.90
39103;DHT22;24847;48.218;16.414;2023-12-29T22:56:22;5.90;75.10
39103;DHT22;24847;48.218;16.414;2023-12-29T23:01:25;5.90;75.10
39103;DHT22;24847;48.218;16.414;2023-12-29T23:06:28;5.90;75.60
39103;DHT22;24847;48.218;16.414;2023-12-29T23:11:33;6.00;74.90
39103;DHT22;24847;48.218;16.414;2023-12-29T23:16:37;6.10;74.40
39103;DHT22;24847;48.218;16.414;2023-12-29T23:21:45;6.00;74.20
39103;DHT22;24847;48.218;16.414;2023-12-29T23:26:49;5.80;75.30
39103;DHT22;24847;48.218;16.414;2023-12-29T23:31:52;5.80;75.00
39103;DHT22;24847;48.218;16.414;2023-12-29T23:36:58;5.80;75.40
39103;DHT22;24847;48.218;16.414;2023-12-29T23:42:01;5.70;76.70
39103;DHT22;24847;48.218;16.414;2023-12-29T23:47:05;5.70;76.80
39103;DHT22;24847;48.218;16.414;2023-12-29T23:52:07;5.80;76.10
39103;DHT22;24847;48.218;16.414;2023-12-29T23:57:10;5.70;75.70
